Más de esta sección

TAF-AERONAUTICA

                                                                 

                                                             

                                                                                           

                                       

                                       

                                 

SANTO DOMINGO 16 DE AGOSTO 2022

 AEROP. INT. LAS AMERICAS JFPG-

FTDR31 MDSD 161600Z              

TAF

TAF MDPP 161600Z 1618/1718 07015KT 9999 FEW022 PROB30 1618/1700 8000 -TSRA FEW016CB BKN018=

TAF MDST 161600Z 1618/1718 11012KT 9999 SCT022 PROB40 1618/1700 6000 TSRA FEW014CB BKN015 OVC070= 

TAF MDPC 161600Z 1618/1718 12010KT 9999 SCT022 PROB30 1623/1705 7000 –TSRA BKN016 BKN070=

TAF MDBH 161600Z 1618/1718 13015KT 9999 FEW022CB SCT024 SCT080= 

TAF MDJB 161600Z 1618/1718 06010KT 9999 FEW018 SCT300  PROB30 1620/1703 7000 -TSRA FEW014CB BKN016=

TAF MDSD 161600Z 1618/1718 16008KT 9999 SCT020 PROB30 1619/1623 7000 -TSRA FEW014CB BKN016 SCT070=

TAF MDLR 161600Z 1618/1718 18010KT 9999 FEW020  PROB30 1618/17007000 –TSRA FEW016CB BKN016 BECMG 1709/1711 00000KT= 

TAF MDCY 161600Z 1618/1718 14006KT 9999 SCT020 PROB30 1619/1623 8000 –TSSH FEW016CB SCT016 BKN070=

 

MDPP AEROPUERTO INTERNACIONAL LA UNION PUERTO PLATA

MDST AEROPUERTO INTERNACIONAL DE SANTIAGO

MDPC AEROPUERTO INTERNACIONAL PUNTA CANA

MDBH AEROPUERTO INTERNACIONAL DE BARAHONA

MDJB AEROPUERTO INTERNACIONAL JOAQUIN BALAGUER

MDSD AEROPUERTO INTERNACIONAL LAS AMERICAS

MDLR AEROPUERTO INTERNACIONAL LA ROMANA

MDCY AEROPUERTO INTERNACIONAL DE CATEY

 

MDPP// JAILUIS MENDOZA

MDST// SULEIKA GONZALEZ

MDPC// JAVIER ACOSTA

MDBH// R. MEDEZ

MDJB// DORIS CACERES

MDSD// FELICIA MARTINEZ

MDLR// SAMUEL ROSARIO

MDCY// DOMINGO FLORENTINO